Flight Track Log - Related Links

Times and Time Zones

All times are in EST time to prevent confusion due to time zone crossing. See the UAL4788 flight status page for this flight to view local times or setup timezone preferences in your user account.

Time Position Orientation Groundspeed Altitude Reporting Facility
EST Latitude Longitude Course Direction KTS MPH feet Rate Location/Type
Wed 06:25:50 AM 42.9436 -83.7919 137° Southeast 173 199 3,000  Level Cleveland Center
Wed 06:26:21 AM 42.9225 -83.7689 141° Southeast 197 227 3,800 1,373 Climbing Cleveland Center
Wed 06:27:13 AM 42.8939 -83.7250 132° Southeast 192 221 4,900 637 Climbing Cleveland Center
Wed 06:28:14 AM 42.8481 -83.6514 130° Southeast 238 274 5,000 74 Climbing Cleveland Center
Wed 06:28:34 AM 42.8314 -83.6242 130° Southeast 262 302 5,000 885 Level Cleveland Center
Wed 06:29:15 AM 42.8017 -83.5758 130° Southeast 259 298 5,900 1,377 Climbing Cleveland Center
Wed 06:29:35 AM 42.7867 -83.5522 131° Southeast 236 272 6,400 1,100 Climbing Cleveland Center
Wed 06:30:00 AM 42.7388 -83.4603 161° South  Level Estimated
Wed 06:30:15 AM 42.7647 -83.5056 123° Southeast 235 270 7,000  Level Cleveland Center
Wed 06:30:35 AM 42.7486 -83.4783 129° Southeast 239 275 7,000  Level Cleveland Center
Wed 06:31:00 AM 42.6941 -83.4028 137° Southeast  Level FlightAware Approximate
Wed 06:31:16 AM 42.7189 -83.4233 126° Southeast 258 297 7,000  Level Cleveland Center
Wed 06:31:36 AM 42.7044 -83.3983 128° Southeast 264 304 7,000  Level Cleveland Center
Wed 06:32:17 AM 42.6792 -83.3536 128° Southeast 261 300 7,000  Level Cleveland Center
Wed 06:32:36 AM 42.6603 -83.3208 128° Southeast 257 296 7,000  Level Cleveland Center
Wed 06:33:18 AM 42.6372 -83.2758 125° Southeast 258 297 7,000  Level Cleveland Center
Wed 06:33:43 AM 42.6139 -83.2406 132° Southeast 252 290 7,000  Level Cleveland Center
Wed 06:34:19 AM 42.5900 -83.2067 134° Southeast 252 290 7,000  Level Cleveland Center
Wed 06:34:50 AM 42.5572 -83.1619 135° Southeast 246 283 7,000  Level Cleveland Center
Wed 06:35:20 AM 42.5411 -83.1406 136° Southeast 248 285 7,000  Level Cleveland Center
Wed 06:36:21 AM 42.4939 -83.0731 133° Southeast 246 283 7,000  Level Cleveland Center
Wed 06:37:22 AM 42.4456 -83.0075 135° Southeast 246 283 7,000  Level Cleveland Center
Wed 06:38:23 AM 42.3969 -82.9425 135° Southeast 245 282 7,000  Level Cleveland Center
Wed 06:39:24 AM 42.3492 -82.8764 134° Southeast 246 283 7,000  Level Cleveland Center
Wed 06:40:25 AM 42.2914 -82.7958 134° Southeast 248 285 7,000 49 Level Cleveland Center
Wed 06:41:26 AM 42.2422 -82.7311 136° Southeast 247 284 7,100 49 Climbing Cleveland Center
Wed 06:42:27 AM 42.1942 -82.6653 135° Southeast 247 284 7,100  Level Cleveland Center
Wed 06:43:29 AM 42.1458 -82.5983 134° Southeast 248 285 7,100  Level Cleveland Center
Wed 06:44:30 AM 42.0967 -82.5331 135° Southeast 248 285 7,100 -59 Level Cleveland Center
Wed 06:45:10 AM 42.0619 -82.4878 136° Southeast 247 284 7,000  Descending Cleveland Center
Wed 06:45:31 AM 42.0481 -82.4672 132° Southeast 248 285 7,100  Climbing Cleveland Center
Wed 06:45:40 AM 42.0358 -82.4522 138° Southeast 246 283 7,000  Descending Cleveland Center
Wed 06:46:32 AM 41.9994 -82.4028 135° Southeast 246 283 7,100  Climbing Cleveland Center
Wed 06:46:41 AM 41.9875 -82.3875 136° Southeast 246 283 7,000  Descending Cleveland Center
Wed 06:47:33 AM 41.9517 -82.3378 134° Southeast 245 282 7,100  Climbing Cleveland Center
Wed 06:47:42 AM 41.9392 -82.3228 138° Southeast 244 281 7,000 -98 Descending Cleveland Center
Wed 06:48:34 AM 41.9033 -82.2733 134° Southeast 245 282 7,000  Level Cleveland Center
Wed 06:48:42 AM 41.8906 -82.2583 139° Southeast 247 284 7,000 -98 Level Cleveland Center
Wed 06:49:35 AM 41.8539 -82.2083 135° Southeast 248 285 6,900 -98 Descending Cleveland Center
Wed 06:49:43 AM 41.8403 -82.1908 136° Southeast 247 284 6,900 98 Level Cleveland Center
Wed 06:50:36 AM 41.7983 -82.1564 149° Southeast 246 283 7,000 100 Climbing Cleveland Center
Wed 06:50:43 AM 41.7817 -82.1444 152° Southeast 249 287 7,000  Level Cleveland Center
Wed 06:51:37 AM 41.7356 -82.1083 150° Southeast 249 287 7,000  Level Cleveland Center
Wed 06:51:44 AM 41.7258 -82.0900 125° Southeast 252 290 7,000 -484 Level Cleveland Center
Wed 06:52:39 AM 41.7044 -82.0247 114° Southeast 252 290 6,500 -787 Descending Cleveland Center
Wed 06:52:45 AM 41.6981 -82.0069 116° Southeast 252 290 6,200 -1,180 Descending Cleveland Center
Wed 06:53:40 AM 41.6675 -81.9242 116° Southeast 254 292 5,300 -1,000 Descending Cleveland Center
Wed 06:53:45 AM 41.6658 -81.9231 154° Southeast 251 289 5,200 -984 Descending Cleveland Center
Wed 06:54:41 AM 41.6358 -81.8425 116° Southeast 249 287 4,300 -984 Descending Cleveland Center
Wed 06:54:46 AM 41.6358 -81.8397 90° East 244 281 4,200 -295 Descending Cleveland Center
Wed 06:55:42 AM 41.6064 -81.7611 117° Southeast 245 282 4,000 -197 Descending Cleveland Center
Wed 06:55:47 AM 41.6053 -81.7594 132° Southeast 240 276 4,000 -492 Level Cleveland Center
Wed 06:56:43 AM 41.5758 -81.6803 116° Southeast 242 278 3,500 -500 Descending Cleveland Center
Wed 06:56:47 AM 41.5750 -81.6789 129° Southeast 245 282 3,500 -407 Level Cleveland Center
Wed 06:57:42 AM 41.5242 -81.6819 183° South 197 227 3,100 -526 Descending Cleveland Center
Wed 06:57:44 AM 41.5208 -81.6844 209° Southwest 218 251 3,000 -188 Descending Cleveland Center
Wed 06:58:46 AM 41.4858 -81.7358 228° Southwest 195 224 2,900 -94 Descending Cleveland Center
Wed 06:58:48 AM 41.4833 -81.7394 227° Southwest 163 188 2,900 -762 Level Cleveland Center
Wed 06:59:49 AM 41.4561 -81.7828 230° Southwest 147 169 2,100 -787 Descending Cleveland Center
Wed 07:00:50 AM 41.4314 -81.8233 231° Southwest 140 161 1,300 -590 Descending Cleveland Center
Wed 07:01:51 AM 41.4083 -81.8597 230° Southwest 138 159 900 -393 Descending Cleveland Center

Login

Don't have an account? Register now (free) for customized features, flight alerts, and more!